Time;durP1;ratioP1;P1;durP2;ratioP2;P2;SDS_P1;SDS_P2;PMS_P1;PMS_P2;Temp;Humidity;BMP_temperature;BMP_pressure;BME280_temperature;BME280_humidity;BME280_pressure;Samples;Min_cycle;Max_cycle;Signal;HPM_P1;HPM_P2
2022/08/16 16:14:24;;;;;;;16.83;6.07;;;;;;;27.46;33.27;99823.38;5030653;23;20496;-74
2022/08/16 16:16:54;;;;;;;10.13;5.75;;;;;;;27.43;33.51;99821.41;4978673;28;20153;-74
2022/08/16 16:19:22;;;;;;;13.88;5.63;;;;;;;27.46;33.38;99831.94;4954255;28;20150;-72
2022/08/16 16:21:50;;;;;;;23.83;5.95;;;;;;;27.44;33.63;99839.38;4955082;29;20549;-71
2022/08/16 16:24:21;;;;;;;9.50;5.90;;;;;;;27.42;33.49;99830.41;4954918;29;20055;-71
2022/08/16 16:26:56;;;;;;;10.80;5.63;;;;;;;27.38;33.54;99830.47;4955297;28;20071;-72
2022/08/16 16:29:23;;;;;;;12.57;6.80;;;;;;;27.37;33.70;99830.91;4953834;29;20059;-71
2022/08/16 16:31:53;;;;;;;11.65;6.25;;;;;;;27.31;33.63;99827.78;4954789;28;20103;-72
2022/08/16 16:34:25;;;;;;;19.23;5.97;;;;;;;27.31;33.66;99824.09;4954844;29;20055;-71
2022/08/16 16:37:01;;;;;;;12.40;5.70;;;;;;;27.28;33.96;99831.50;4954951;29;20145;-72
2022/08/16 16:39:28;;;;;;;13.23;8.20;;;;;;;27.27;33.82;99829.09;4954725;29;20055;-72
2022/08/16 16:41:58;;;;;;;15.57;7.80;;;;;;;27.24;34.22;99839.31;4954490;29;20518;-72
2022/08/16 16:44:25;;;;;;;14.35;6.55;;;;;;;27.21;34.10;99833.66;4954654;29;20055;-70
2022/08/16 16:47:02;;;;;;;12.93;6.60;;;;;;;27.18;34.24;99828.81;4954805;29;20130;-70
2022/08/16 16:49:31;;;;;;;13.15;6.18;;;;;;;27.15;34.23;99824.81;4955070;29;20153;-71
2022/08/16 16:52:00;;;;;;;16.30;6.45;;;;;;;27.12;34.44;99831.38;4954727;29;20414;-71
2022/08/16 16:54:34;;;;;;;16.52;6.90;;;;;;;27.09;34.42;99835.13;4954735;29;20085;-72
2022/08/16 16:57:01;;;;;;;12.90;6.75;;;;;;;27.05;34.47;99833.56;4954514;29;20063;-72
2022/08/16 16:59:28;;;;;;;13.95;6.38;;;;;;;27.03;34.35;99830.34;4937136;29;20051;-71
2022/08/16 17:01:58;;;;;;;14.27;7.10;;;;;;;27.02;34.69;99831.59;4937734;29;20498;-71
2022/08/16 17:04:45;;;;;;;11.90;7.82;;;;;;;26.99;34.93;99829.59;4973912;28;20151;-71
2022/08/16 17:07:13;;;;;;;13.77;6.88;;;;;;;26.97;34.78;99837.78;4973710;28;20413;-72
2022/08/16 17:09:40;;;;;;;13.50;7.32;;;;;;;26.93;34.89;99831.31;4973708;28;20081;-72
2022/08/16 17:12:08;;;;;;;10.65;6.13;;;;;;;26.91;35.39;99834.63;4973832;28;20112;-72
2022/08/16 17:14:48;;;;;;;12.13;6.93;;;;;;;26.85;35.23;99842.06;4973523;28;20142;-72
2022/08/16 17:17:15;;;;;;;15.00;6.80;;;;;;;26.82;35.37;99847.84;4954028;28;20055;-72
2022/08/16 17:19:42;;;;;;;17.17;8.82;;;;;;;26.79;35.43;99850.34;4954541;29;20141;-72
2022/08/16 17:22:16;;;;;;;20.38;7.07;;;;;;;26.80;35.21;99846.22;4954299;28;20146;-72
2022/08/16 17:24:48;;;;;;;16.85;7.00;;;;;;;26.77;35.49;99849.16;4954924;29;20145;-72
2022/08/16 17:27:19;;;;;;;14.82;7.57;;;;;;;26.75;35.77;99851.63;4953939;29;20092;-73
2022/08/16 17:30:13;;;;;;;18.42;8.77;;;;;;;26.72;35.85;99846.78;4936972;29;20118;-69
2022/08/16 17:32:51;;;;;;;13.93;7.68;;;;;;;26.69;36.21;99844.81;4954456;29;20069;-69
2022/08/16 17:35:25;;;;;;;16.85;7.30;;;;;;;26.65;35.99;99844.84;4954506;28;20055;-69
2022/08/16 17:38:07;;;;;;;18.13;7.45;;;;;;;26.63;36.09;99844.50;4938320;29;20070;-69
2022/08/16 17:40:44;;;;;;;21.10;8.25;;;;;;;26.60;36.39;99845.34;4957389;28;20240;-71
2022/08/16 17:43:30;;;;;;;12.90;7.07;;;;;;;26.56;36.21;99844.56;4957932;29;20418;-69
2022/08/16 17:45:58;;;;;;;49.10;24.08;;;;;;;26.52;36.44;99840.97;4957925;29;20069;-70
2022/08/16 17:48:26;;;;;;;25.20;9.60;;;;;;;26.52;36.76;99840.16;4957589;29;20078;-71
2022/08/16 17:50:53;;;;;;;12.38;7.43;;;;;;;26.52;36.65;99845.88;4957664;29;20425;-71
2022/08/16 17:53:20;;;;;;;16.77;8.43;;;;;;;26.50;36.75;99837.75;4957916;29;20088;-69
2022/08/16 17:55:49;;;;;;;13.30;7.72;;;;;;;26.48;36.88;99839.44;4957685;28;20059;-69
2022/08/16 17:58:18;;;;;;;14.50;8.45;;;;;;;26.46;37.18;99836.19;4957581;29;20098;-68
2022/08/16 18:00:58;;;;;;;17.60;7.63;;;;;;;26.42;37.07;99833.41;4957650;29;20516;-69
2022/08/16 18:03:29;;;;;;;18.63;9.05;;;;;;;26.40;37.15;99841.59;4957184;29;20094;-69
2022/08/16 18:06:17;;;;;;;18.23;8.40;;;;;;;26.36;37.21;99838.00;4958121;29;20518;-74
2022/08/16 18:08:48;;;;;;;17.92;9.27;;;;;;;26.36;36.83;99846.56;4957400;28;20059;-75
2022/08/16 18:11:20;;;;;;;19.38;9.40;;;;;;;26.34;37.00;99840.47;4957623;29;20510;-74
2022/08/16 18:13:53;;;;;;;13.90;8.43;;;;;;;26.33;37.50;99844.56;4957281;29;20063;-75
2022/08/16 18:16:21;;;;;;;20.30;9.93;;;;;;;26.27;37.47;99836.91;4940563;29;20414;-75
2022/08/16 18:18:48;;;;;;;18.33;9.27;;;;;;;26.23;37.53;99845.50;4957357;29;20063;-73
2022/08/16 18:24:03;;;;;;;17.88;10.25;;;;;;;26.19;37.85;99843.94;4957690;29;20457;-75
2022/08/16 18:26:30;;;;;;;22.17;10.00;;;;;;;26.17;37.82;99846.44;4957466;29;20399;-74
2022/08/16 18:28:57;;;;;;;15.85;9.13;;;;;;;26.13;37.88;99846.50;4940069;29;20066;-75
2022/08/16 18:31:24;;;;;;;14.68;9.48;;;;;;;26.02;37.87;99845.03;4957487;29;20409;-74
2022/08/16 18:33:51;;;;;;;25.48;13.00;;;;;;;25.99;38.29;99834.50;4957191;29;20055;-74
2022/08/16 18:36:22;;;;;;;24.67;10.60;;;;;;;26.04;37.80;99831.16;4957590;29;20059;-72
2022/08/16 18:38:51;;;;;;;20.52;10.85;;;;;;;26.06;38.01;99829.50;4940266;29;20071;-72
2022/08/16 18:41:19;;;;;;;17.23;10.93;;;;;;;26.07;38.06;99836.81;4957013;29;20084;-71
2022/08/16 18:43:49;;;;;;;18.73;10.32;;;;;;;26.04;38.10;99831.97;4956627;29;20063;-72
2022/08/16 18:46:44;;;;;;;19.38;10.18;;;;;;;25.86;38.65;99825.69;4956993;29;20063;-70
2022/08/16 18:49:16;;;;;;;19.30;9.90;;;;;;;25.78;38.95;99821.31;4956559;29;20107;-69
2022/08/16 18:51:44;;;;;;;16.27;9.98;;;;;;;25.77;38.75;99822.53;4955628;28;20066;-71
2022/08/16 18:54:15;;;;;;;22.77;9.40;;;;;;;25.84;38.99;99822.44;4956982;29;20419;-70
2022/08/16 18:56:42;;;;;;;19.52;10.60;;;;;;;25.80;39.08;99833.09;4956682;28;20062;-70
2022/08/16 18:59:27;;;;;;;19.30;10.77;;;;;;;25.82;38.99;99812.72;4957178;29;20475;-70
2022/08/16 19:01:56;;;;;;;19.83;10.90;;;;;;;25.85;38.78;99824.06;4956645;29;20490;-67
2022/08/16 19:04:31;;;;;;;20.30;10.23;;;;;;;25.83;38.78;99817.97;4956893;29;20126;-69
2022/08/16 19:07:18;;;;;;;22.83;10.50;;;;;;;25.80;38.52;99826.56;4956326;28;20506;-70
2022/08/16 19:09:45;;;;;;;26.52;10.93;;;;;;;25.80;38.56;99816.00;4956737;29;20067;-71
2022/08/16 19:12:12;;;;;;;16.40;10.30;;;;;;;25.79;39.00;99820.09;4956468;28;20142;-70
2022/08/16 19:14:44;;;;;;;19.20;10.38;;;;;;;25.77;38.92;99813.19;4956440;29;20055;-69
2022/08/16 19:17:11;;;;;;;18.13;11.07;;;;;;;25.76;38.64;99809.53;4956072;29;20090;-70
2022/08/16 19:19:38;;;;;;;22.23;11.10;;;;;;;25.75;38.75;99813.59;4956376;29;20058;-69
2022/08/16 19:22:05;;;;;;;18.65;11.05;;;;;;;25.73;39.19;99815.28;4956002;29;20055;-71
2022/08/16 19:24:32;;;;;;;23.33;11.25;;;;;;;25.71;38.88;99821.41;4956050;29;20077;-69
2022/08/16 19:26:59;;;;;;;19.42;10.65;;;;;;;25.67;38.86;99817.81;4956204;29;20063;-71
2022/08/16 19:29:27;;;;;;;19.63;10.05;;;;;;;25.65;38.90;99817.41;4956905;29;20431;-69
2022/08/16 19:31:54;;;;;;;17.95;10.23;;;;;;;25.63;38.95;99817.03;4955819;29;20055;-69
2022/08/16 19:34:21;;;;;;;19.23;10.30;;;;;;;25.62;39.22;99815.41;4955609;28;20062;-71
2022/08/16 19:36:48;;;;;;;19.17;9.95;;;;;;;25.58;39.10;99814.63;4955682;29;20055;-71
2022/08/16 19:39:16;;;;;;;22.35;10.38;;;;;;;25.56;39.33;99816.31;4938417;29;20059;-71
2022/08/16 19:41:47;;;;;;;16.80;11.07;;;;;;;25.56;39.14;99810.63;4956073;29;20082;-69
2022/08/16 19:44:21;;;;;;;16.77;10.80;;;;;;;25.52;39.24;99809.88;4955591;28;20065;-69
2022/08/16 19:46:48;;;;;;;20.70;10.85;;;;;;;25.50;39.69;99812.31;4955521;29;20063;-69
2022/08/16 19:49:15;;;;;;;30.02;13.70;;;;;;;25.49;39.35;99814.34;4955621;29;20102;-74
2022/08/16 19:51:44;;;;;;;18.45;9.98;;;;;;;25.48;39.59;99818.44;4955578;29;20482;-74
2022/08/16 19:54:12;;;;;;;25.15;11.57;;;;;;;25.45;39.13;99810.75;4955576;29;20070;-75
2022/08/16 19:56:38;;;;;;;21.48;10.65;;;;;;;25.46;39.51;99812.34;4955796;29;20066;-74
2022/08/16 19:59:05;;;;;;;20.27;10.57;;;;;;;25.46;39.53;99812.34;4955718;29;20067;-74
2022/08/16 20:01:52;;;;;;;16.48;10.32;;;;;;;25.42;39.73;99816.47;4955453;28;20107;-75
2022/08/16 20:04:21;;;;;;;15.20;10.13;;;;;;;25.44;39.66;99814.84;4955736;29;20089;-76
2022/08/16 20:06:50;;;;;;;18.23;9.50;;;;;;;25.41;39.69;99807.16;4955402;29;20147;-70
2022/08/16 20:09:19;;;;;;;14.45;10.30;;;;;;;25.38;39.52;99810.84;4955842;29;20087;-74
2022/08/16 20:11:47;;;;;;;15.68;10.30;;;;;;;25.38;39.89;99810.84;4955318;29;20391;-74
2022/08/16 20:14:15;;;;;;;18.52;10.50;;;;;;;25.34;39.77;99815.75;4954956;29;20109;-71
2022/08/16 20:16:54;;;;;;;16.67;9.52;;;;;;;25.32;39.73;99818.25;4955028;29;20522;-72
2022/08/16 20:19:21;;;;;;;29.15;10.30;;;;;;;25.27;40.22;99821.53;4955514;29;20062;-71
2022/08/16 20:21:51;;;;;;;15.10;9.25;;;;;;;25.23;40.08;99820.75;4955047;29;20051;-72
2022/08/16 20:24:18;;;;;;;20.83;10.15;;;;;;;25.20;40.37;99826.50;4954509;28;20066;-72
2022/08/16 20:27:02;;;;;;;15.77;9.45;;;;;;;25.16;40.46;99820.81;4954967;29;20506;-72
2022/08/16 20:29:29;;;;;;;23.90;10.80;;;;;;;25.12;40.76;99817.22;4937704;29;20062;-72
2022/08/16 20:31:56;;;;;;;20.65;9.57;;;;;;;25.11;40.79;99812.78;4955124;29;20133;-70
2022/08/16 20:34:23;;;;;;;19.83;9.38;;;;;;;25.11;40.67;99818.47;4954917;28;20585;-71
2022/08/16 20:36:50;;;;;;;16.90;9.35;;;;;;;25.10;40.43;99825.38;4955486;29;20059;-72
2022/08/16 20:39:17;;;;;;;16.48;9.52;;;;;;;25.06;40.55;99816.06;4954522;29;20154;-72
2022/08/16 20:41:44;;;;;;;18.02;9.15;;;;;;;25.05;40.78;99825.84;4954768;29;20051;-71
2022/08/16 20:44:11;;;;;;;13.48;9.20;;;;;;;25.03;40.87;99816.91;4953375;28;20051;-71
2022/08/16 20:46:39;;;;;;;15.50;9.32;;;;;;;25.02;41.00;99826.69;4954742;29;20417;-71
2022/08/16 20:49:07;;;;;;;12.05;8.68;;;;;;;24.98;41.19;99828.75;4954978;29;20058;-71
2022/08/16 20:51:36;;;;;;;12.23;8.15;;;;;;;24.90;41.12;99825.16;4954899;29;20103;-71
2022/08/16 20:54:18;;;;;;;20.70;9.45;;;;;;;24.90;41.48;99830.88;4954610;29;20090;-69
2022/08/16 20:56:45;;;;;;;18.35;8.90;;;;;;;24.89;41.29;99828.44;4954553;29;20074;-68
2022/08/16 20:59:14;;;;;;;26.10;10.43;;;;;;;24.87;41.70;99825.22;4954233;29;20421;-68
2022/08/16 21:01:41;;;;;;;19.25;10.32;;;;;;;24.84;41.87;99826.06;4954479;29;20138;-69
2022/08/16 21:04:15;;;;;;;15.45;8.60;;;;;;;24.82;41.94;99834.22;4954322;29;20094;-69
2022/08/16 21:06:43;;;;;;;;;;;;;;;24.67;41.98;99827.03;4954732;29;20063;-69
2022/08/16 21:09:25;;;;;;;16.40;8.82;;;;;;;24.70;42.00;99829.03;4954463;29;20412;-69
2022/08/16 21:11:54;;;;;;;15.25;8.93;;;;;;;24.69;42.12;99824.59;4954421;28;20059;-69
2022/08/16 21:14:21;;;;;;;15.03;7.93;;;;;;;24.63;42.31;99821.34;4955440;28;20094;-69
2022/08/16 21:16:49;;;;;;;16.67;8.45;;;;;;;24.60;42.33;99822.19;4958774;29;20063;-68
2022/08/16 21:19:16;;;;;;;16.80;9.68;;;;;;;24.56;42.59;99820.59;4958292;29;20562;-71
2022/08/16 21:21:42;;;;;;;13.82;8.77;;;;;;;24.54;42.63;99821.00;4958415;29;20059;-71
2022/08/16 21:24:09;;;;;;;13.57;7.32;;;;;;;24.52;42.80;99828.34;4958136;28;20059;-70
2022/08/16 21:26:36;;;;;;;12.77;8.50;;;;;;;24.48;42.98;99821.91;4958362;29;20418;-71
2022/08/16 21:29:05;;;;;;;14.68;8.25;;;;;;;24.49;43.00;99826.34;4958231;29;20058;-71
2022/08/16 21:31:38;;;;;;;16.15;8.73;;;;;;;24.43;42.92;99828.03;4958000;29;20059;-71
2022/08/16 21:34:06;;;;;;;15.23;8.68;;;;;;;24.39;43.02;99828.06;4958212;29;20066;-71
2022/08/16 21:36:34;;;;;;;17.17;8.52;;;;;;;24.38;43.11;99825.63;4958228;29;20059;-71
2022/08/16 21:39:04;;;;;;;14.75;8.18;;;;;;;24.36;43.33;99828.06;4957884;29;20086;-71
2022/08/16 21:41:32;;;;;;;;;;;;;;;24.20;43.52;99824.94;4958193;29;20061;-71
2022/08/16 21:43:59;;;;;;;16.88;8.63;;;;;;;24.23;43.37;99827.78;4957739;28;19958;-70
2022/08/16 21:46:26;;;;;;;14.10;8.27;;;;;;;24.25;43.64;99827.34;4958219;29;20070;-72
2022/08/16 21:48:53;;;;;;;13.38;8.50;;;;;;;24.23;43.70;99824.13;4957854;29;20533;-71
2022/08/16 21:51:20;;;;;;;15.00;7.88;;;;;;;24.19;43.71;99826.19;4957998;29;20050;-70
2022/08/16 21:53:47;;;;;;;16.38;9.30;;;;;;;24.18;43.84;99821.69;4957878;29;20059;-71
2022/08/16 21:56:14;;;;;;;12.60;8.85;;;;;;;24.17;43.84;99825.78;4957502;29;20118;-71
2022/08/16 21:58:44;;;;;;;14.80;8.73;;;;;;;24.09;44.05;99821.38;4957939;29;20129;-72
2022/08/16 22:01:11;;;;;;;12.77;8.73;;;;;;;24.07;44.02;99826.69;4957824;29;20061;-71
2022/08/16 22:03:38;;;;;;;18.75;8.63;;;;;;;23.99;44.14;99813.72;4957664;29;20070;-72
2022/08/16 22:06:06;;;;;;;14.00;8.38;;;;;;;24.01;44.30;99814.13;4940983;29;20594;-72
2022/08/16 22:08:45;;;;;;;17.60;8.32;;;;;;;23.98;44.16;99809.28;4957522;29;20058;-71
2022/08/16 22:11:23;;;;;;;16.83;8.90;;;;;;;23.95;44.47;99807.25;4957597;29;20065;-71
2022/08/16 22:13:54;;;;;;;13.23;7.90;;;;;;;23.92;44.49;99808.06;4956992;28;20062;-71
2022/08/16 22:16:27;;;;;;;15.85;9.10;;;;;;;23.88;44.54;99818.63;4957262;29;20460;-72
2022/08/16 22:18:54;;;;;;;17.30;9.43;;;;;;;23.83;44.80;99805.66;4957329;29;20146;-71
2022/08/16 22:21:21;;;;;;;17.88;8.60;;;;;;;23.83;44.84;99816.25;4956123;29;20119;-71
2022/08/16 22:23:47;;;;;;;17.48;8.27;;;;;;;23.80;44.83;99817.06;4957777;29;20066;-73
2022/08/16 22:26:28;;;;;;;15.52;7.70;;;;;;;23.76;45.05;99811.41;4956182;28;20078;-71
2022/08/16 22:29:04;;;;;;;16.52;8.45;;;;;;;23.72;45.10;99809.81;4957050;29;20081;-71
2022/08/16 22:31:32;;;;;;;14.23;8.57;;;;;;;23.67;45.12;99813.88;4956910;29;20518;-71
2022/08/16 22:34:00;;;;;;;15.30;8.15;;;;;;;23.64;45.17;99811.06;4962695;28;20518;-72
2022/08/16 22:36:29;;;;;;;12.70;8.05;;;;;;;23.59;45.23;99817.19;4976736;28;20069;-72
2022/08/16 22:38:58;;;;;;;15.57;9.00;;;;;;;23.55;45.30;99820.03;4976809;28;20063;-72
2022/08/16 22:41:33;;;;;;;12.52;8.00;;;;;;;23.54;45.34;99815.59;4976235;28;20525;-72
2022/08/16 22:44:01;;;;;;;16.92;7.85;;;;;;;23.50;45.57;99817.63;4974966;28;20114;-71
2022/08/16 22:46:29;;;;;;;17.60;8.70;;;;;;;23.49;45.63;99818.84;4957157;29;20067;-72
2022/08/16 22:48:56;;;;;;;12.13;7.72;;;;;;;23.48;45.68;99817.25;4957147;29;20055;-71
2022/08/16 22:51:24;;;;;;;18.52;8.98;;;;;;;23.47;45.56;99826.16;4956840;29;20059;-72
2022/08/16 22:53:52;;;;;;;16.80;8.23;;;;;;;23.46;45.66;99825.34;4956519;29;20517;-73
2022/08/16 22:56:21;;;;;;;13.90;8.65;;;;;;;23.46;45.55;99831.03;4956722;29;20070;-71
2022/08/16 22:58:50;;;;;;;22.77;7.85;;;;;;;23.44;45.65;99818.47;4956391;29;20078;-71
2022/08/16 23:01:20;;;;;;;13.32;7.80;;;;;;;23.45;45.55;99831.44;4956688;29;20094;-72
2022/08/16 23:03:47;;;;;;;13.05;8.10;;;;;;;23.41;45.49;99822.94;4956698;29;20119;-74
2022/08/16 23:06:15;;;;;;;14.70;8.45;;;;;;;23.38;45.72;99824.56;4956592;29;20051;-75
2022/08/16 23:08:43;;;;;;;19.80;8.13;;;;;;;23.35;45.75;99828.22;4939330;29;20142;-74
2022/08/16 23:11:21;;;;;;;17.52;7.82;;;;;;;23.33;45.84;99839.19;4956929;29;20533;-73
2022/08/16 23:13:50;;;;;;;12.27;8.27;;;;;;;23.27;45.94;99829.47;4956047;28;20063;-74
2022/08/16 23:16:25;;;;;;;15.57;8.95;;;;;;;23.25;46.04;99843.28;4939901;29;20054;-74
2022/08/16 23:19:07;;;;;;;;;;;;;;;23.11;46.19;99831.94;4956633;29;20089;-74
2022/08/16 23:21:36;;;;;;;18.15;10.02;;;;;;;23.15;46.01;99835.56;4956608;29;19926;-73
2022/08/16 23:24:04;;;;;;;20.33;10.60;;;;;;;23.13;46.20;99840.03;4967396;28;20120;-74
2022/08/16 23:26:31;;;;;;;19.88;9.98;;;;;;;23.12;46.18;99827.88;4975944;28;20059;-73
2022/08/16 23:29:19;;;;;;;21.80;9.80;;;;;;;23.13;46.23;99821.00;4975461;28;20110;-74
2022/08/16 23:31:54;;;;;;;15.45;8.70;;;;;;;23.06;46.41;99829.50;4975754;28;20066;-73
2022/08/16 23:34:21;;;;;;;12.55;8.57;;;;;;;23.06;46.42;99828.69;4975163;28;20054;-74
2022/08/16 23:36:48;;;;;;;19.38;9.77;;;;;;;23.04;46.46;99820.56;4957906;28;20086;-73
2022/08/16 23:39:15;;;;;;;16.50;9.70;;;;;;;23.05;46.53;99822.22;4957936;28;20110;-75
2022/08/16 23:41:42;;;;;;;16.17;9.15;;;;;;;23.04;46.58;99831.13;4975234;28;20417;-73
2022/08/16 23:44:09;;;;;;;14.35;9.75;;;;;;;22.98;46.58;99839.25;4975055;28;20153;-75
2022/08/16 23:46:56;;;;;;;16.70;9.15;;;;;;;22.96;46.82;99827.50;4975283;28;20055;-68
2022/08/16 23:49:23;;;;;;;16.13;10.60;;;;;;;22.93;47.00;99830.34;4974513;28;20059;-70
2022/08/16 23:52:10;;;;;;;17.25;10.07;;;;;;;22.88;46.98;99831.56;4974893;28;20569;-69
2022/08/16 23:54:38;;;;;;;25.42;14.80;;;;;;;22.86;47.00;99819.81;4973771;28;20069;-69
2022/08/16 23:57:05;;;;;;;16.90;11.30;;;;;;;22.82;47.15;99830.38;4975069;28;20074;-70
2022/08/16 23:59:32;;;;;;;26.67;11.93;;;;;;;22.78;47.28;99834.41;4975023;28;20133;-68
